HVK374 WSSS-WMKK
Flight info
| Callsign | HVK374 |
|---|---|
| Flight time | 0h 39m |
| Altitude | 26000 |
| Route | MASBO5B MASBO A457 GUPTA GUPTA1G |
| Aircraft | A400/H-SDE2E3FGHIJ4J5M1RWXY/LB1D1 |
Departure
| Time | 2026-05-06 13:20 |
|---|---|
| Airport | Singapore Changi Airport (WSSS) |
Arrival
| Time | 2026-05-06 14:00 |
|---|---|
| Airport | Kuala Lumpur International Airport (WMKK) |
| Time | Latitude | Longitude | Altitude | Speed | Heading |
|---|---|---|---|---|---|
| 2026-05-06 13:02 | 1.36391 | 103.99402 | 33 ft | 0 kts | 330° |
| 2026-05-06 13:16 | 1.36384 | 103.99406 | 32 ft | 6 kts | 330° |
| 2026-05-06 13:16 | 1.36345 | 103.99428 | 31 ft | 7 kts | 330° |
| 2026-05-06 13:16 | 1.36304 | 103.99445 | 29 ft | 6 kts | 4° |
| 2026-05-06 13:16 | 1.36283 | 103.99441 | 30 ft | 0 kts | 54° |
| 2026-05-06 13:17 | 1.36284 | 103.99442 | 30 ft | 2 kts | 54° |
| 2026-05-06 13:18 | 1.36327 | 103.99507 | 34 ft | 18 kts | 64° |
| 2026-05-06 13:18 | 1.36317 | 103.99604 | 34 ft | 14 kts | 112° |
| 2026-05-06 13:18 | 1.36266 | 103.99724 | 35 ft | 23 kts | 113° |
| 2026-05-06 13:18 | 1.36232 | 103.99804 | 35 ft | 0 kts | 113° |
| 2026-05-06 13:19 | 1.36224 | 103.99823 | 36 ft | 13 kts | 113° |
| 2026-05-06 13:19 | 1.36161 | 103.99900 | 37 ft | 7 kts | 175° |
| 2026-05-06 13:19 | 1.36120 | 103.99880 | 37 ft | 11 kts | 209° |
| 2026-05-06 13:19 | 1.35979 | 103.99815 | 36 ft | 53 kts | 204° |
| 2026-05-06 13:20 | 1.35245 | 103.99507 | 60 ft | 167 kts | 202° |
| 2026-05-06 13:20 | 1.34030 | 103.98994 | 566 ft | 207 kts | 203° |
| 2026-05-06 13:20 | 1.32593 | 103.98415 | 1256 ft | 239 kts | 202° |
| 2026-05-06 13:20 | 1.30952 | 103.97800 | 1999 ft | 262 kts | 200° |
| 2026-05-06 13:21 | 1.29179 | 103.97188 | 2692 ft | 279 kts | 199° |
| 2026-05-06 13:21 | 1.27336 | 103.96422 | 3547 ft | 287 kts | 205° |
| 2026-05-06 13:21 | 1.25568 | 103.95605 | 4990 ft | 277 kts | 202° |
| 2026-05-06 13:21 | 1.23719 | 103.95210 | 6596 ft | 267 kts | 180° |
| 2026-05-06 13:22 | 1.22515 | 103.95386 | 7686 ft | 262 kts | 163° |
| 2026-05-06 13:22 | 1.20888 | 103.96234 | 9060 ft | 270 kts | 144° |
| 2026-05-06 13:22 | 1.18914 | 103.97879 | 10592 ft | 286 kts | 138° |
| 2026-05-06 13:22 | 1.17964 | 103.98831 | 11260 ft | 295 kts | 131° |
| 2026-05-06 13:23 | 1.16892 | 104.00614 | 12319 ft | 305 kts | 110° |
| 2026-05-06 13:23 | 1.16564 | 104.02717 | 13409 ft | 311 kts | 87° |
| 2026-05-06 13:23 | 1.17121 | 104.04817 | 14498 ft | 317 kts | 63° |
| 2026-05-06 13:23 | 1.18346 | 104.06671 | 15584 ft | 322 kts | 52° |
| 2026-05-06 13:24 | 1.19837 | 104.08371 | 16648 ft | 328 kts | 42° |
| 2026-05-06 13:24 | 1.21704 | 104.09707 | 17691 ft | 333 kts | 31° |
| 2026-05-06 13:24 | 1.23710 | 104.10848 | 18696 ft | 338 kts | 27° |
| 2026-05-06 13:24 | 1.25903 | 104.11735 | 19705 ft | 343 kts | 14° |
| 2026-05-06 13:25 | 1.28298 | 104.11921 | 20688 ft | 348 kts | 354° |
| 2026-05-06 13:25 | 1.30628 | 104.11246 | 21633 ft | 352 kts | 333° |
| 2026-05-06 13:25 | 1.32669 | 104.09857 | 22544 ft | 357 kts | 321° |
| 2026-05-06 13:25 | 1.34578 | 104.08249 | 23396 ft | 361 kts | 319° |
| 2026-05-06 13:26 | 1.36496 | 104.06585 | 23926 ft | 367 kts | 319° |
| 2026-05-06 13:26 | 1.38416 | 104.04926 | 24118 ft | 370 kts | 319° |
| 2026-05-06 13:26 | 1.40403 | 104.03279 | 24138 ft | 371 kts | 323° |
| 2026-05-06 13:26 | 1.42632 | 104.01975 | 24138 ft | 371 kts | 336° |
| 2026-05-06 13:27 | 1.45058 | 104.01063 | 24137 ft | 371 kts | 341° |
| 2026-05-06 13:27 | 1.47516 | 104.00260 | 24137 ft | 371 kts | 342° |
| 2026-05-06 13:27 | 1.49949 | 103.99483 | 24137 ft | 372 kts | 342° |
| 2026-05-06 13:27 | 1.52417 | 103.98694 | 24137 ft | 372 kts | 342° |
| 2026-05-06 13:28 | 1.54878 | 103.97903 | 24137 ft | 372 kts | 342° |
| 2026-05-06 13:28 | 1.57345 | 103.97108 | 24136 ft | 372 kts | 342° |
| 2026-05-06 13:28 | 1.59818 | 103.96310 | 24060 ft | 372 kts | 342° |
| 2026-05-06 13:28 | 1.62277 | 103.95515 | 24000 ft | 371 kts | 342° |
| 2026-05-06 13:29 | 1.64707 | 103.94729 | 23999 ft | 371 kts | 342° |
| 2026-05-06 13:29 | 1.67159 | 103.93935 | 24000 ft | 371 kts | 341° |
| 2026-05-06 13:29 | 1.69578 | 103.93023 | 23999 ft | 371 kts | 335° |
| 2026-05-06 13:29 | 1.71798 | 103.91737 | 23999 ft | 370 kts | 324° |
| 2026-05-06 13:30 | 1.73722 | 103.90015 | 24000 ft | 370 kts | 312° |
| 2026-05-06 13:30 | 1.75234 | 103.87944 | 24002 ft | 370 kts | 300° |
| 2026-05-06 13:30 | 1.76283 | 103.85601 | 24000 ft | 370 kts | 288° |
| 2026-05-06 13:30 | 1.76864 | 103.83135 | 24001 ft | 369 kts | 280° |
| 2026-05-06 13:31 | 1.77262 | 103.80596 | 24000 ft | 370 kts | 278° |
| 2026-05-06 13:31 | 1.77628 | 103.78051 | 24000 ft | 370 kts | 278° |
| 2026-05-06 13:31 | 1.77994 | 103.75509 | 24000 ft | 370 kts | 278° |
| 2026-05-06 13:31 | 1.78367 | 103.72966 | 24000 ft | 369 kts | 278° |
| 2026-05-06 13:32 | 1.78743 | 103.70426 | 24000 ft | 369 kts | 278° |
| 2026-05-06 13:32 | 1.79113 | 103.67879 | 24000 ft | 370 kts | 278° |
| 2026-05-06 13:32 | 1.79479 | 103.65329 | 24000 ft | 370 kts | 278° |
| 2026-05-06 13:32 | 1.79841 | 103.62813 | 24000 ft | 369 kts | 278° |
| 2026-05-06 13:33 | 1.80207 | 103.60267 | 24000 ft | 369 kts | 278° |
| 2026-05-06 13:33 | 1.80573 | 103.57723 | 24000 ft | 369 kts | 278° |
| 2026-05-06 13:33 | 1.80940 | 103.55175 | 24000 ft | 370 kts | 278° |
| 2026-05-06 13:33 | 1.81307 | 103.52624 | 24000 ft | 370 kts | 278° |
| 2026-05-06 13:34 | 1.81669 | 103.50111 | 24000 ft | 370 kts | 278° |
| 2026-05-06 13:34 | 1.82037 | 103.47557 | 24000 ft | 370 kts | 278° |
| 2026-05-06 13:34 | 1.82404 | 103.45011 | 24000 ft | 370 kts | 278° |
| 2026-05-06 13:34 | 1.82770 | 103.42467 | 24000 ft | 370 kts | 278° |
| 2026-05-06 13:35 | 1.83136 | 103.39925 | 24000 ft | 370 kts | 278° |
| 2026-05-06 13:35 | 1.83500 | 103.37401 | 24000 ft | 370 kts | 278° |
| 2026-05-06 13:35 | 1.83867 | 103.34852 | 24000 ft | 370 kts | 278° |
| 2026-05-06 13:35 | 1.84234 | 103.32304 | 24000 ft | 370 kts | 278° |
| 2026-05-06 13:36 | 1.84669 | 103.29776 | 23999 ft | 370 kts | 283° |
| 2026-05-06 13:36 | 1.85465 | 103.27336 | 24000 ft | 370 kts | 292° |
| 2026-05-06 13:36 | 1.86536 | 103.24997 | 24000 ft | 370 kts | 295° |
| 2026-05-06 13:36 | 1.87656 | 103.22715 | 24000 ft | 370 kts | 296° |
| 2026-05-06 13:37 | 1.88797 | 103.20409 | 24000 ft | 370 kts | 296° |
| 2026-05-06 13:37 | 1.89938 | 103.18100 | 24000 ft | 370 kts | 296° |
| 2026-05-06 13:37 | 1.91077 | 103.15787 | 24000 ft | 370 kts | 296° |
| 2026-05-06 13:37 | 1.92214 | 103.13475 | 24000 ft | 370 kts | 296° |
| 2026-05-06 13:38 | 1.93335 | 103.11191 | 24000 ft | 370 kts | 296° |
| 2026-05-06 13:38 | 1.94458 | 103.08868 | 24000 ft | 370 kts | 295° |
| 2026-05-06 13:38 | 1.95522 | 103.06531 | 24000 ft | 370 kts | 294° |
| 2026-05-06 13:38 | 1.96574 | 103.04185 | 24000 ft | 370 kts | 294° |
| 2026-05-06 13:39 | 1.97627 | 103.01843 | 24000 ft | 370 kts | 294° |
| 2026-05-06 13:39 | 1.98685 | 102.99508 | 23881 ft | 363 kts | 294° |
| 2026-05-06 13:39 | 1.99708 | 102.97254 | 23200 ft | 359 kts | 294° |
| 2026-05-06 13:39 | 2.00741 | 102.94979 | 22415 ft | 359 kts | 294° |
| 2026-05-06 13:40 | 2.01768 | 102.92714 | 21684 ft | 356 kts | 294° |
| 2026-05-06 13:40 | 2.02787 | 102.90465 | 20996 ft | 353 kts | 294° |
| 2026-05-06 13:40 | 2.03795 | 102.88242 | 20413 ft | 347 kts | 294° |
| 2026-05-06 13:40 | 2.04788 | 102.86050 | 19716 ft | 344 kts | 294° |
| 2026-05-06 13:41 | 2.05774 | 102.83874 | 19023 ft | 342 kts | 294° |
| 2026-05-06 13:41 | 2.06737 | 102.81746 | 18362 ft | 339 kts | 294° |
| 2026-05-06 13:41 | 2.07706 | 102.79608 | 17705 ft | 335 kts | 294° |
| 2026-05-06 13:41 | 2.08666 | 102.77488 | 17041 ft | 332 kts | 294° |
| 2026-05-06 13:42 | 2.09619 | 102.75384 | 16389 ft | 329 kts | 294° |
| 2026-05-06 13:42 | 2.10557 | 102.73313 | 15733 ft | 325 kts | 294° |
| 2026-05-06 13:42 | 2.11475 | 102.71285 | 15092 ft | 322 kts | 294° |
| 2026-05-06 13:42 | 2.12398 | 102.69247 | 14447 ft | 319 kts | 294° |
| 2026-05-06 13:43 | 2.13309 | 102.67235 | 13800 ft | 316 kts | 294° |
| 2026-05-06 13:43 | 2.14215 | 102.65235 | 13173 ft | 313 kts | 294° |
| 2026-05-06 13:43 | 2.15109 | 102.63259 | 12543 ft | 310 kts | 294° |
| 2026-05-06 13:43 | 2.15995 | 102.61303 | 11905 ft | 307 kts | 294° |
| 2026-05-06 13:44 | 2.16861 | 102.59390 | 11375 ft | 305 kts | 294° |
| 2026-05-06 13:44 | 2.17735 | 102.57460 | 11161 ft | 303 kts | 294° |
| 2026-05-06 13:44 | 2.18606 | 102.55535 | 11136 ft | 303 kts | 294° |
| 2026-05-06 13:44 | 2.19476 | 102.53613 | 11136 ft | 303 kts | 294° |
| 2026-05-06 13:45 | 2.20349 | 102.51686 | 11150 ft | 303 kts | 294° |
| 2026-05-06 13:45 | 2.22038 | 102.47955 | 10172 ft | 295 kts | 294° |
| 2026-05-06 13:45 | 2.22879 | 102.46096 | 9658 ft | 290 kts | 294° |
| 2026-05-06 13:46 | 2.23703 | 102.44275 | 9148 ft | 285 kts | 294° |
| 2026-05-06 13:46 | 2.24505 | 102.42503 | 8617 ft | 282 kts | 294° |
| 2026-05-06 13:46 | 2.25309 | 102.40727 | 8072 ft | 279 kts | 294° |
| 2026-05-06 13:46 | 2.26110 | 102.38957 | 7514 ft | 277 kts | 294° |
| 2026-05-06 13:47 | 2.26902 | 102.37206 | 7220 ft | 275 kts | 294° |
| 2026-05-06 13:47 | 2.27690 | 102.35465 | 7153 ft | 275 kts | 294° |
| 2026-05-06 13:47 | 2.28477 | 102.33725 | 7167 ft | 275 kts | 294° |
| 2026-05-06 13:47 | 2.29268 | 102.31977 | 7158 ft | 275 kts | 294° |
| 2026-05-06 13:48 | 2.30049 | 102.30252 | 7167 ft | 275 kts | 294° |
| 2026-05-06 13:48 | 2.30839 | 102.28506 | 7167 ft | 275 kts | 294° |
| 2026-05-06 13:48 | 2.31629 | 102.26760 | 7153 ft | 275 kts | 294° |
| 2026-05-06 13:48 | 2.32420 | 102.25012 | 7166 ft | 275 kts | 294° |
| 2026-05-06 13:49 | 2.33206 | 102.23274 | 7026 ft | 275 kts | 294° |
| 2026-05-06 13:49 | 2.33995 | 102.21529 | 6769 ft | 274 kts | 294° |
| 2026-05-06 13:49 | 2.34780 | 102.19795 | 6524 ft | 273 kts | 294° |
| 2026-05-06 13:49 | 2.35557 | 102.18076 | 6308 ft | 274 kts | 294° |
| 2026-05-06 13:50 | 2.36348 | 102.16327 | 6130 ft | 277 kts | 294° |
| 2026-05-06 13:50 | 2.37142 | 102.14572 | 5894 ft | 276 kts | 294° |
| 2026-05-06 13:50 | 2.37935 | 102.12820 | 5631 ft | 275 kts | 294° |
| 2026-05-06 13:50 | 2.38711 | 102.11103 | 5383 ft | 274 kts | 294° |
| 2026-05-06 13:51 | 2.39496 | 102.09368 | 5142 ft | 273 kts | 294° |
| 2026-05-06 13:51 | 2.40277 | 102.07640 | 5002 ft | 272 kts | 294° |
| 2026-05-06 13:51 | 2.41060 | 102.05911 | 4876 ft | 272 kts | 294° |
| 2026-05-06 13:51 | 2.41840 | 102.04185 | 4755 ft | 271 kts | 294° |
| 2026-05-06 13:52 | 2.42607 | 102.02488 | 4670 ft | 271 kts | 294° |
| 2026-05-06 13:52 | 2.43383 | 102.00772 | 4662 ft | 270 kts | 294° |
| 2026-05-06 13:52 | 2.44170 | 101.99056 | 4665 ft | 273 kts | 295° |
| 2026-05-06 13:52 | 2.44986 | 101.97319 | 4667 ft | 280 kts | 295° |
| 2026-05-06 13:53 | 2.45841 | 101.95543 | 4666 ft | 284 kts | 296° |
| 2026-05-06 13:53 | 2.46711 | 101.93763 | 4665 ft | 285 kts | 296° |
| 2026-05-06 13:53 | 2.47611 | 101.91987 | 4666 ft | 286 kts | 299° |
| 2026-05-06 13:53 | 2.48663 | 101.90299 | 4666 ft | 286 kts | 306° |
| 2026-05-06 13:54 | 2.50021 | 101.88883 | 4666 ft | 286 kts | 320° |
| 2026-05-06 13:54 | 2.51657 | 101.87737 | 4667 ft | 286 kts | 327° |
| 2026-05-06 13:54 | 2.53348 | 101.86672 | 4667 ft | 286 kts | 327° |
| 2026-05-06 13:54 | 2.55015 | 101.85576 | 4660 ft | 287 kts | 326° |
| 2026-05-06 13:55 | 2.56671 | 101.84449 | 4617 ft | 291 kts | 325° |
| 2026-05-06 13:55 | 2.58327 | 101.83329 | 4604 ft | 278 kts | 326° |
| 2026-05-06 13:55 | 2.59891 | 101.82274 | 4115 ft | 270 kts | 326° |
| 2026-05-06 13:55 | 2.61425 | 101.81240 | 3603 ft | 261 kts | 326° |
| 2026-05-06 13:56 | 2.62881 | 101.80259 | 2521 ft | 243 kts | 326° |
| 2026-05-06 13:56 | 2.64185 | 101.79395 | 1792 ft | 202 kts | 327° |
| 2026-05-06 13:56 | 2.65274 | 101.78683 | 1287 ft | 173 kts | 325° |
| 2026-05-06 13:56 | 2.66198 | 101.78023 | 934 ft | 153 kts | 322° |
| 2026-05-06 13:57 | 2.67026 | 101.77413 | 937 ft | 146 kts | 328° |
| 2026-05-06 13:57 | 2.67913 | 101.76776 | 831 ft | 169 kts | 322° |
| 2026-05-06 13:57 | 2.68904 | 101.76062 | 754 ft | 179 kts | 324° |
| 2026-05-06 13:57 | 2.69957 | 101.75351 | 701 ft | 183 kts | 326° |
| 2026-05-06 13:58 | 2.70954 | 101.74705 | 626 ft | 160 kts | 327° |
| 2026-05-06 13:58 | 2.71855 | 101.74155 | 488 ft | 146 kts | 328° |
| 2026-05-06 13:58 | 2.72692 | 101.73634 | 454 ft | 158 kts | 326° |
| 2026-05-06 13:58 | 2.73653 | 101.72971 | 405 ft | 163 kts | 327° |
| 2026-05-06 13:59 | 2.74576 | 101.72365 | 217 ft | 153 kts | 326° |
| 2026-05-06 13:59 | 2.75377 | 101.71825 | 70 ft | 117 kts | 325° |
| 2026-05-06 13:59 | 2.75923 | 101.71457 | 61 ft | 77 kts | 329° |
| 2026-05-06 13:59 | 2.76303 | 101.71212 | 61 ft | 51 kts | 327° |
| 2026-05-06 14:00 | 2.76514 | 101.71037 | 63 ft | 34 kts | 304° |
| 2026-05-06 14:00 | 2.76571 | 101.70931 | 62 ft | 1 kts | 291° |
| 2026-05-06 14:00 | 2.76576 | 101.70920 | 61 ft | 3 kts | 291° |
| 2026-05-06 14:00 | 2.76580 | 101.70897 | 63 ft | 3 kts | 264° |
| 2026-05-06 14:01 | 2.76579 | 101.70883 | 62 ft | 4 kts | 264° |
| 2026-05-06 14:01 | 2.76557 | 101.70855 | 61 ft | 5 kts | 208° |
| 2026-05-06 14:01 | 2.76490 | 101.70871 | 61 ft | 16 kts | 154° |
| 2026-05-06 14:01 | 2.76348 | 101.70959 | 59 ft | 29 kts | 144° |
| 2026-05-06 14:02 | 2.76189 | 101.71028 | 61 ft | 23 kts | 172° |
| 2026-05-06 14:02 | 2.76016 | 101.71079 | 61 ft | 28 kts | 150° |
| 2026-05-06 14:02 | 2.75826 | 101.71203 | 64 ft | 36 kts | 146° |
| 2026-05-06 14:02 | 2.75601 | 101.71354 | 59 ft | 41 kts | 146° |
| 2026-05-06 14:03 | 2.75360 | 101.71515 | 61 ft | 41 kts | 147° |
| 2026-05-06 14:03 | 2.75155 | 101.71655 | 60 ft | 32 kts | 145° |
| 2026-05-06 14:03 | 2.75051 | 101.71689 | 58 ft | 10 kts | 225° |
| 2026-05-06 14:03 | 2.75002 | 101.71622 | 59 ft | 13 kts | 235° |